sensor_id;sensor_type;location;lat;lon;timestamp;P1;durP1;ratioP1;P2;durP2;ratioP2
16450;SDS011;12243;42.708;23.310;2022-07-23T14:32:11;12.32;;;6.10;;
16450;SDS011;12243;42.708;23.310;2022-07-23T14:34:38;13.15;;;6.55;;
16450;SDS011;12243;42.708;23.310;2022-07-23T14:37:05;8.77;;;5.57;;
16450;SDS011;12243;42.708;23.310;2022-07-23T14:39:32;15.45;;;6.18;;
16450;SDS011;12243;42.708;23.310;2022-07-23T14:41:59;16.70;;;6.50;;
16450;SDS011;12243;42.708;23.310;2022-07-23T14:44:26;10.20;;;6.18;;
16450;SDS011;12243;42.708;23.310;2022-07-23T14:46:54;12.05;;;5.63;;
16450;SDS011;12243;42.708;23.310;2022-07-23T14:49:21;10.45;;;5.47;;
16450;SDS011;12243;42.708;23.310;2022-07-23T14:51:48;13.57;;;5.88;;
16450;SDS011;12243;42.708;23.310;2022-07-23T14:54:15;8.75;;;5.90;;
16450;SDS011;12243;42.708;23.310;2022-07-23T14:56:41;12.07;;;5.53;;
16450;SDS011;12243;42.708;23.310;2022-07-23T14:59:08;15.77;;;6.05;;
16450;SDS011;12243;42.708;23.310;2022-07-23T15:01:36;8.65;;;5.20;;
16450;SDS011;12243;42.708;23.310;2022-07-23T15:04:04;8.82;;;5.57;;
16450;SDS011;12243;42.708;23.310;2022-07-23T15:06:32;9.45;;;5.47;;
16450;SDS011;12243;42.708;23.310;2022-07-23T15:08:59;15.85;;;6.05;;
16450;SDS011;12243;42.708;23.310;2022-07-23T15:11:26;8.93;;;5.40;;
16450;SDS011;12243;42.708;23.310;2022-07-23T15:13:54;10.23;;;5.50;;
16450;SDS011;12243;42.708;23.310;2022-07-23T15:16:21;13.05;;;5.47;;
16450;SDS011;12243;42.708;23.310;2022-07-23T15:18:48;11.63;;;6.22;;
16450;SDS011;12243;42.708;23.310;2022-07-23T15:21:16;8.77;;;5.93;;
16450;SDS011;12243;42.708;23.310;2022-07-23T15:23:43;12.30;;;5.68;;
16450;SDS011;12243;42.708;23.310;2022-07-23T15:26:10;11.75;;;5.85;;
16450;SDS011;12243;42.708;23.310;2022-07-23T15:28:37;12.15;;;6.07;;
16450;SDS011;12243;42.708;23.310;2022-07-23T15:31:04;10.90;;;5.53;;
16450;SDS011;12243;42.708;23.310;2022-07-23T15:33:31;12.63;;;5.97;;
16450;SDS011;12243;42.708;23.310;2022-07-23T15:35:58;10.65;;;6.80;;
16450;SDS011;12243;42.708;23.310;2022-07-23T15:38:27;13.13;;;6.53;;
16450;SDS011;12243;42.708;23.310;2022-07-23T15:40:54;12.25;;;6.40;;
16450;SDS011;12243;42.708;23.310;2022-07-23T15:43:22;12.77;;;6.25;;
16450;SDS011;12243;42.708;23.310;2022-07-23T15:45:49;12.20;;;6.13;;
16450;SDS011;12243;42.708;23.310;2022-07-23T15:48:17;11.18;;;6.80;;
16450;SDS011;12243;42.708;23.310;2022-07-23T15:50:45;10.98;;;6.25;;
16450;SDS011;12243;42.708;23.310;2022-07-23T15:53:12;9.70;;;6.30;;
16450;SDS011;12243;42.708;23.310;2022-07-23T15:55:41;10.30;;;6.95;;
16450;SDS011;12243;42.708;23.310;2022-07-23T15:58:09;10.55;;;6.47;;
16450;SDS011;12243;42.708;23.310;2022-07-23T16:00:37;14.70;;;6.07;;
16450;SDS011;12243;42.708;23.310;2022-07-23T16:03:03;11.45;;;6.18;;
16450;SDS011;12243;42.708;23.310;2022-07-23T16:05:30;7.72;;;6.30;;
16450;SDS011;12243;42.708;23.310;2022-07-23T16:07:58;15.05;;;6.82;;
16450;SDS011;12243;42.708;23.310;2022-07-23T16:10:25;9.25;;;6.68;;
16450;SDS011;12243;42.708;23.310;2022-07-23T16:12:53;12.02;;;6.25;;
16450;SDS011;12243;42.708;23.310;2022-07-23T16:15:20;10.88;;;6.28;;
16450;SDS011;12243;42.708;23.310;2022-07-23T16:17:47;13.23;;;6.40;;
16450;SDS011;12243;42.708;23.310;2022-07-23T16:20:14;14.13;;;7.03;;
16450;SDS011;12243;42.708;23.310;2022-07-23T16:22:41;9.73;;;6.15;;
16450;SDS011;12243;42.708;23.310;2022-07-23T16:25:08;11.70;;;6.45;;
16450;SDS011;12243;42.708;23.310;2022-07-23T16:27:36;11.18;;;6.55;;
16450;SDS011;12243;42.708;23.310;2022-07-23T16:30:07;10.43;;;5.95;;
16450;SDS011;12243;42.708;23.310;2022-07-23T16:32:36;11.27;;;6.38;;
16450;SDS011;12243;42.708;23.310;2022-07-23T16:35:03;8.57;;;6.60;;
16450;SDS011;12243;42.708;23.310;2022-07-23T16:37:30;13.13;;;6.40;;
16450;SDS011;12243;42.708;23.310;2022-07-23T16:39:57;11.10;;;6.30;;
16450;SDS011;12243;42.708;23.310;2022-07-23T16:42:25;17.30;;;6.40;;
16450;SDS011;12243;42.708;23.310;2022-07-23T16:44:53;15.02;;;6.85;;
16450;SDS011;12243;42.708;23.310;2022-07-23T16:47:21;11.77;;;6.38;;
16450;SDS011;12243;42.708;23.310;2022-07-23T16:49:49;12.52;;;6.78;;
16450;SDS011;12243;42.708;23.310;2022-07-23T16:52:16;10.77;;;6.75;;
16450;SDS011;12243;42.708;23.310;2022-07-23T16:54:43;13.98;;;6.68;;
16450;SDS011;12243;42.708;23.310;2022-07-23T16:57:10;15.82;;;8.15;;
16450;SDS011;12243;42.708;23.310;2022-07-23T16:59:37;17.48;;;9.48;;
16450;SDS011;12243;42.708;23.310;2022-07-23T17:02:04;11.88;;;6.90;;
16450;SDS011;12243;42.708;23.310;2022-07-23T17:04:33;13.40;;;6.63;;
16450;SDS011;12243;42.708;23.310;2022-07-23T17:07:00;10.32;;;6.50;;
16450;SDS011;12243;42.708;23.310;2022-07-23T17:09:30;21.83;;;12.27;;
16450;SDS011;12243;42.708;23.310;2022-07-23T17:11:58;21.77;;;10.68;;
16450;SDS011;12243;42.708;23.310;2022-07-23T17:14:25;28.15;;;17.10;;
16450;SDS011;12243;42.708;23.310;2022-07-23T17:16:52;17.63;;;10.13;;
16450;SDS011;12243;42.708;23.310;2022-07-23T17:19:19;14.90;;;7.32;;
16450;SDS011;12243;42.708;23.310;2022-07-23T17:21:47;13.02;;;6.90;;
16450;SDS011;12243;42.708;23.310;2022-07-23T17:24:15;14.68;;;6.38;;
16450;SDS011;12243;42.708;23.310;2022-07-23T17:26:42;12.45;;;6.70;;
16450;SDS011;12243;42.708;23.310;2022-07-23T17:29:09;13.57;;;6.72;;
16450;SDS011;12243;42.708;23.310;2022-07-23T17:31:36;14.32;;;6.72;;
16450;SDS011;12243;42.708;23.310;2022-07-23T17:34:03;13.55;;;6.45;;
16450;SDS011;12243;42.708;23.310;2022-07-23T17:36:30;10.48;;;6.82;;
16450;SDS011;12243;42.708;23.310;2022-07-23T17:38:58;14.18;;;6.80;;
16450;SDS011;12243;42.708;23.310;2022-07-23T17:41:25;18.00;;;7.05;;
16450;SDS011;12243;42.708;23.310;2022-07-23T17:43:52;10.77;;;6.70;;
16450;SDS011;12243;42.708;23.310;2022-07-23T17:46:19;11.23;;;6.95;;
16450;SDS011;12243;42.708;23.310;2022-07-23T17:48:46;15.38;;;6.95;;
16450;SDS011;12243;42.708;23.310;2022-07-23T17:51:13;15.93;;;7.43;;
16450;SDS011;12243;42.708;23.310;2022-07-23T17:53:40;14.80;;;7.70;;
16450;SDS011;12243;42.708;23.310;2022-07-23T17:56:08;13.63;;;7.63;;
16450;SDS011;12243;42.708;23.310;2022-07-23T17:58:35;12.75;;;7.68;;
16450;SDS011;12243;42.708;23.310;2022-07-23T18:01:02;11.55;;;7.95;;
16450;SDS011;12243;42.708;23.310;2022-07-23T18:03:29;16.25;;;7.38;;
16450;SDS011;12243;42.708;23.310;2022-07-23T18:05:56;16.70;;;7.90;;
16450;SDS011;12243;42.708;23.310;2022-07-23T18:08:23;13.07;;;7.57;;
16450;SDS011;12243;42.708;23.310;2022-07-23T18:10:50;13.60;;;8.40;;
16450;SDS011;12243;42.708;23.310;2022-07-23T18:13:19;18.20;;;8.57;;
16450;SDS011;12243;42.708;23.310;2022-07-23T18:15:45;17.90;;;8.65;;
16450;SDS011;12243;42.708;23.310;2022-07-23T18:18:12;20.45;;;9.55;;
16450;SDS011;12243;42.708;23.310;2022-07-23T18:20:39;16.52;;;10.05;;
16450;SDS011;12243;42.708;23.310;2022-07-23T18:23:06;19.55;;;10.90;;
16450;SDS011;12243;42.708;23.310;2022-07-23T18:25:33;18.13;;;10.63;;
16450;SDS011;12243;42.708;23.310;2022-07-23T18:28:00;23.17;;;10.55;;
16450;SDS011;12243;42.708;23.310;2022-07-23T18:30:28;31.88;;;12.23;;
16450;SDS011;12243;42.708;23.310;2022-07-23T18:32:55;22.42;;;11.60;;
16450;SDS011;12243;42.708;23.310;2022-07-23T18:35:22;20.70;;;11.98;;
16450;SDS011;12243;42.708;23.310;2022-07-23T18:37:49;25.58;;;12.45;;
16450;SDS011;12243;42.708;23.310;2022-07-23T18:40:18;17.33;;;12.35;;
16450;SDS011;12243;42.708;23.310;2022-07-23T18:42:46;26.85;;;12.57;;
16450;SDS011;12243;42.708;23.310;2022-07-23T18:45:14;29.45;;;11.73;;
16450;SDS011;12243;42.708;23.310;2022-07-23T18:47:42;29.67;;;12.00;;
16450;SDS011;12243;42.708;23.310;2022-07-23T18:50:11;34.90;;;13.27;;
16450;SDS011;12243;42.708;23.310;2022-07-23T18:52:38;21.88;;;11.43;;
16450;SDS011;12243;42.708;23.310;2022-07-23T18:55:05;25.00;;;12.77;;
16450;SDS011;12243;42.708;23.310;2022-07-23T18:57:33;22.85;;;11.60;;
16450;SDS011;12243;42.708;23.310;2022-07-23T19:00:00;23.88;;;11.75;;
16450;SDS011;12243;42.708;23.310;2022-07-23T19:02:28;26.67;;;12.65;;
16450;SDS011;12243;42.708;23.310;2022-07-23T19:04:56;23.45;;;12.73;;
16450;SDS011;12243;42.708;23.310;2022-07-23T19:07:23;26.83;;;12.77;;
16450;SDS011;12243;42.708;23.310;2022-07-23T19:09:49;25.63;;;13.32;;
16450;SDS011;12243;42.708;23.310;2022-07-23T19:12:17;20.38;;;12.98;;
16450;SDS011;12243;42.708;23.310;2022-07-23T19:14:44;30.58;;;13.68;;
16450;SDS011;12243;42.708;23.310;2022-07-23T19:17:11;19.70;;;12.60;;
16450;SDS011;12243;42.708;23.310;2022-07-23T19:19:37;21.17;;;12.20;;
16450;SDS011;12243;42.708;23.310;2022-07-23T19:22:06;21.23;;;12.73;;
16450;SDS011;12243;42.708;23.310;2022-07-23T19:24:34;23.63;;;12.52;;
16450;SDS011;12243;42.708;23.310;2022-07-23T19:27:02;20.67;;;10.27;;
16450;SDS011;12243;42.708;23.310;2022-07-23T19:29:29;19.42;;;10.38;;
16450;SDS011;12243;42.708;23.310;2022-07-23T19:31:58;17.25;;;9.73;;
16450;SDS011;12243;42.708;23.310;2022-07-23T19:34:25;18.83;;;9.98;;
16450;SDS011;12243;42.708;23.310;2022-07-23T19:36:52;15.65;;;9.23;;
16450;SDS011;12243;42.708;23.310;2022-07-23T19:39:20;18.92;;;9.30;;
16450;SDS011;12243;42.708;23.310;2022-07-23T19:41:48;19.65;;;10.27;;
16450;SDS011;12243;42.708;23.310;2022-07-23T19:44:15;16.92;;;9.90;;
16450;SDS011;12243;42.708;23.310;2022-07-23T19:46:42;22.48;;;10.73;;
16450;SDS011;12243;42.708;23.310;2022-07-23T19:49:09;22.75;;;10.77;;
16450;SDS011;12243;42.708;23.310;2022-07-23T19:51:36;16.83;;;9.98;;
16450;SDS011;12243;42.708;23.310;2022-07-23T19:54:03;17.10;;;10.70;;
16450;SDS011;12243;42.708;23.310;2022-07-23T19:56:31;18.35;;;10.48;;
16450;SDS011;12243;42.708;23.310;2022-07-23T19:58:58;26.60;;;10.77;;
16450;SDS011;12243;42.708;23.310;2022-07-23T20:01:25;18.05;;;10.63;;
16450;SDS011;12243;42.708;23.310;2022-07-23T20:03:52;21.42;;;11.27;;
16450;SDS011;12243;42.708;23.310;2022-07-23T20:06:19;21.75;;;11.10;;
16450;SDS011;12243;42.708;23.310;2022-07-23T20:08:46;21.27;;;11.68;;
16450;SDS011;12243;42.708;23.310;2022-07-23T20:11:12;23.33;;;14.02;;
16450;SDS011;12243;42.708;23.310;2022-07-23T20:13:41;23.65;;;15.02;;
16450;SDS011;12243;42.708;23.310;2022-07-23T20:16:08;26.77;;;13.48;;
16450;SDS011;12243;42.708;23.310;2022-07-23T20:18:35;19.77;;;12.60;;
16450;SDS011;12243;42.708;23.310;2022-07-23T20:21:02;19.25;;;10.48;;
16450;SDS011;12243;42.708;23.310;2022-07-23T20:23:29;21.00;;;9.82;;
16450;SDS011;12243;42.708;23.310;2022-07-23T20:25:56;23.08;;;9.45;;
16450;SDS011;12243;42.708;23.310;2022-07-23T20:28:24;21.60;;;9.73;;
16450;SDS011;12243;42.708;23.310;2022-07-23T20:30:52;16.27;;;10.10;;
16450;SDS011;12243;42.708;23.310;2022-07-23T20:33:21;20.23;;;10.82;;
16450;SDS011;12243;42.708;23.310;2022-07-23T20:35:49;25.52;;;11.18;;
16450;SDS011;12243;42.708;23.310;2022-07-23T20:38:16;14.10;;;10.27;;
16450;SDS011;12243;42.708;23.310;2022-07-23T20:40:43;12.38;;;8.60;;
16450;SDS011;12243;42.708;23.310;2022-07-23T20:43:10;12.57;;;8.45;;
16450;SDS011;12243;42.708;23.310;2022-07-23T20:45:37;14.45;;;8.13;;
16450;SDS011;12243;42.708;23.310;2022-07-23T20:48:05;21.10;;;8.38;;
16450;SDS011;12243;42.708;23.310;2022-07-23T20:50:32;13.13;;;8.02;;
16450;SDS011;12243;42.708;23.310;2022-07-23T20:53:01;18.17;;;8.75;;
16450;SDS011;12243;42.708;23.310;2022-07-23T20:55:28;16.15;;;8.40;;
16450;SDS011;12243;42.708;23.310;2022-07-23T20:57:56;11.50;;;7.80;;
16450;SDS011;12243;42.708;23.310;2022-07-23T21:00:22;24.58;;;8.95;;
16450;SDS011;12243;42.708;23.310;2022-07-23T21:02:49;15.20;;;8.73;;
16450;SDS011;12243;42.708;23.310;2022-07-23T21:05:18;13.93;;;9.38;;
16450;SDS011;12243;42.708;23.310;2022-07-23T21:07:44;21.55;;;10.52;;
16450;SDS011;12243;42.708;23.310;2022-07-23T21:10:11;20.58;;;10.48;;
16450;SDS011;12243;42.708;23.310;2022-07-23T21:12:39;13.32;;;9.55;;
16450;SDS011;12243;42.708;23.310;2022-07-23T21:15:06;16.77;;;10.48;;
16450;SDS011;12243;42.708;23.310;2022-07-23T21:17:34;17.88;;;9.40;;
16450;SDS011;12243;42.708;23.310;2022-07-23T21:20:00;16.55;;;9.73;;
16450;SDS011;12243;42.708;23.310;2022-07-23T21:22:29;19.75;;;9.27;;
16450;SDS011;12243;42.708;23.310;2022-07-23T21:24:55;15.20;;;9.00;;
16450;SDS011;12243;42.708;23.310;2022-07-23T21:27:22;16.40;;;8.55;;
16450;SDS011;12243;42.708;23.310;2022-07-23T21:29:49;18.42;;;9.70;;
16450;SDS011;12243;42.708;23.310;2022-07-23T21:32:16;19.17;;;9.20;;
16450;SDS011;12243;42.708;23.310;2022-07-23T21:34:43;16.77;;;9.15;;
16450;SDS011;12243;42.708;23.310;2022-07-23T21:37:10;13.88;;;8.82;;
16450;SDS011;12243;42.708;23.310;2022-07-23T21:39:38;17.13;;;8.63;;
16450;SDS011;12243;42.708;23.310;2022-07-23T21:42:05;15.38;;;8.25;;
16450;SDS011;12243;42.708;23.310;2022-07-23T21:44:32;12.32;;;9.25;;
16450;SDS011;12243;42.708;23.310;2022-07-23T21:46:59;14.38;;;9.93;;
16450;SDS011;12243;42.708;23.310;2022-07-23T21:49:26;14.40;;;9.45;;
16450;SDS011;12243;42.708;23.310;2022-07-23T21:51:53;17.38;;;8.73;;
16450;SDS011;12243;42.708;23.310;2022-07-23T21:54:20;14.88;;;9.20;;
16450;SDS011;12243;42.708;23.310;2022-07-23T21:56:48;17.65;;;9.25;;
16450;SDS011;12243;42.708;23.310;2022-07-23T21:59:15;17.30;;;9.60;;
16450;SDS011;12243;42.708;23.310;2022-07-23T22:01:42;13.88;;;8.95;;
16450;SDS011;12243;42.708;23.310;2022-07-23T22:04:09;17.23;;;9.80;;
16450;SDS011;12243;42.708;23.310;2022-07-23T22:06:38;20.75;;;10.25;;
16450;SDS011;12243;42.708;23.310;2022-07-23T22:09:05;21.45;;;10.40;;
16450;SDS011;12243;42.708;23.310;2022-07-23T22:11:32;13.98;;;9.85;;
16450;SDS011;12243;42.708;23.310;2022-07-23T22:14:00;13.50;;;9.18;;
16450;SDS011;12243;42.708;23.310;2022-07-23T22:16:27;13.18;;;8.80;;
16450;SDS011;12243;42.708;23.310;2022-07-23T22:18:56;13.93;;;9.25;;
16450;SDS011;12243;42.708;23.310;2022-07-23T22:21:22;14.43;;;10.10;;
16450;SDS011;12243;42.708;23.310;2022-07-23T22:23:49;16.45;;;9.25;;
16450;SDS011;12243;42.708;23.310;2022-07-23T22:26:16;18.35;;;8.82;;
16450;SDS011;12243;42.708;23.310;2022-07-23T22:28:43;11.98;;;9.00;;
16450;SDS011;12243;42.708;23.310;2022-07-23T22:31:11;17.65;;;9.93;;
16450;SDS011;12243;42.708;23.310;2022-07-23T22:33:38;12.25;;;8.95;;
16450;SDS011;12243;42.708;23.310;2022-07-23T22:36:05;21.42;;;9.65;;
16450;SDS011;12243;42.708;23.310;2022-07-23T22:38:32;19.63;;;9.32;;
16450;SDS011;12243;42.708;23.310;2022-07-23T22:40:59;17.40;;;9.30;;
16450;SDS011;12243;42.708;23.310;2022-07-23T22:43:25;16.48;;;8.77;;
16450;SDS011;12243;42.708;23.310;2022-07-23T22:45:52;15.25;;;8.65;;
16450;SDS011;12243;42.708;23.310;2022-07-23T22:48:21;12.88;;;7.95;;
16450;SDS011;12243;42.708;23.310;2022-07-23T22:50:47;16.60;;;9.25;;
16450;SDS011;12243;42.708;23.310;2022-07-23T22:53:14;13.77;;;8.68;;
16450;SDS011;12243;42.708;23.310;2022-07-23T22:55:41;16.77;;;8.90;;
16450;SDS011;12243;42.708;23.310;2022-07-23T22:58:08;13.65;;;8.77;;
16450;SDS011;12243;42.708;23.310;2022-07-23T23:00:35;14.88;;;9.52;;
16450;SDS011;12243;42.708;23.310;2022-07-23T23:03:02;14.63;;;9.00;;
16450;SDS011;12243;42.708;23.310;2022-07-23T23:05:30;20.02;;;9.73;;
16450;SDS011;12243;42.708;23.310;2022-07-23T23:07:57;19.17;;;9.25;;
16450;SDS011;12243;42.708;23.310;2022-07-23T23:10:24;14.82;;;8.73;;
16450;SDS011;12243;42.708;23.310;2022-07-23T23:12:51;15.32;;;9.02;;
16450;SDS011;12243;42.708;23.310;2022-07-23T23:15:18;12.75;;;8.65;;
16450;SDS011;12243;42.708;23.310;2022-07-23T23:17:45;12.38;;;8.95;;
16450;SDS011;12243;42.708;23.310;2022-07-23T23:20:12;15.98;;;8.73;;
16450;SDS011;12243;42.708;23.310;2022-07-23T23:22:40;10.43;;;8.68;;
16450;SDS011;12243;42.708;23.310;2022-07-23T23:25:07;14.13;;;8.02;;
16450;SDS011;12243;42.708;23.310;2022-07-23T23:27:35;12.25;;;8.30;;
16450;SDS011;12243;42.708;23.310;2022-07-23T23:30:02;11.73;;;7.80;;
16450;SDS011;12243;42.708;23.310;2022-07-23T23:32:29;15.80;;;8.50;;
16450;SDS011;12243;42.708;23.310;2022-07-23T23:34:56;13.70;;;7.90;;
16450;SDS011;12243;42.708;23.310;2022-07-23T23:37:23;17.55;;;8.20;;
16450;SDS011;12243;42.708;23.310;2022-07-23T23:39:51;14.40;;;7.40;;
16450;SDS011;12243;42.708;23.310;2022-07-23T23:42:18;15.15;;;7.88;;
16450;SDS011;12243;42.708;23.310;2022-07-23T23:44:44;11.85;;;7.95;;
16450;SDS011;12243;42.708;23.310;2022-07-23T23:47:11;11.88;;;7.93;;
16450;SDS011;12243;42.708;23.310;2022-07-23T23:49:38;12.50;;;8.30;;
16450;SDS011;12243;42.708;23.310;2022-07-23T23:52:05;11.05;;;7.82;;
16450;SDS011;12243;42.708;23.310;2022-07-23T23:54:32;14.40;;;8.07;;
16450;SDS011;12243;42.708;23.310;2022-07-23T23:57:00;13.48;;;8.15;;
16450;SDS011;12243;42.708;23.310;2022-07-23T23:59:27;11.43;;;8.88;;
